KLCK METAR and TAF | Updated Today

KLCK METAR

Rickenbacker International Airport

Observation time: 61 min. ago

KLCK 301655Z AUTO 25012G15KT 10SM CLR 08/01 A2999 RMK AO2 T00840007

Need help? Read our tutorial on how to read METARs or read the parsed version below.

Rickenbacker International Airport (KLCK) METAR

  • Weather conditions on Tue, 30 Nov 2021 16:55:00 +0000 (61 min. ago):
  • Present conditions: Dry
  • Clouds: Clear skies
  • Visibility: 16093 meters
  • Wind: 250 degrees at 12 knots
  • Temperature: 8 celsius
  • Dew point: 1 celsius
  • Pressure: 29.99 inHg
  • Remarks: AO2 T00840007


Useful to know...

KLCK TAF

Rickenbacker International Airport

KLCK 301508Z 3015/0112 26013G17KT P6SM FEW120 SCT250 FM010000 29005KT P6SM FEW250 FM010600 VRB03KT P6SM SCT250
Observation time: 2:48 hr. ago
Need help? Read our tutorial on how to read TAFs or read the parsed version below.

Parsed version of TAF for Rickenbacker International Airport (KLCK)

  • From 30 November at 15:00 UTC, to day 01 of the month at 12:00 UTC
  • Clouds: A few at 3658 meters; scattered at 7620 meters
  • Wind: 260 degrees at 13
  • From day 1 of the month at 00:00 UTC
  • Clouds: A few at 7620 meters
  • Wind: 290 degrees at 5
  • From day 1 of the month at 06:00 UTC
  • Clouds: Scattered at 7620 meters
  • Wind: Variable at 3